createdAt,value
2023-04-03T00:01:27.493Z,8.35
2023-04-03T00:04:00.884Z,8.37
2023-04-03T00:06:34.988Z,8.35
2023-04-03T00:09:09.472Z,8.37
2023-04-03T00:11:41.880Z,8.38
2023-04-03T00:14:14.680Z,8.38
2023-04-03T00:16:47.945Z,8.37
2023-04-03T00:19:21.046Z,8.33
2023-04-03T00:21:54.613Z,8.27
2023-04-03T00:24:27.296Z,8.21
2023-04-03T00:27:00.392Z,8.18
2023-04-03T00:29:33.613Z,8.17
2023-04-03T00:32:06.118Z,8.19
2023-04-03T00:34:40.434Z,8.18
2023-04-03T00:37:13.186Z,8.16
2023-04-03T00:39:45.697Z,8.16
2023-04-03T00:42:18.827Z,8.17
2023-04-03T00:45:01.865Z,8.18
2023-04-03T00:47:35.022Z,8.20
2023-04-03T00:50:08.863Z,8.22
2023-04-03T00:52:41.412Z,8.22
2023-04-03T00:55:15.535Z,8.24
2023-04-03T00:57:48.085Z,8.22
2023-04-03T01:00:23.554Z,8.17
2023-04-03T01:02:56.738Z,8.14
2023-04-03T01:05:30.635Z,8.12
2023-04-03T01:08:03.426Z,8.18
2023-04-03T01:10:36.204Z,8.17
2023-04-03T01:13:33.045Z,8.18
2023-04-03T01:16:07.838Z,8.20
2023-04-03T01:18:41.511Z,8.19
2023-04-03T01:21:40.034Z,8.17
2023-04-03T01:24:37.360Z,8.18
2023-04-03T01:27:11.888Z,8.17
2023-04-03T01:29:44.675Z,8.16
2023-04-03T01:32:17.620Z,8.14
2023-04-03T01:34:50.188Z,8.16
2023-04-03T01:37:22.709Z,8.18
2023-04-03T01:39:56.311Z,8.22
2023-04-03T01:42:29.033Z,8.20
2023-04-03T01:45:01.504Z,8.21
2023-04-03T01:47:34.467Z,8.20
2023-04-03T01:50:07.925Z,8.20
2023-04-03T01:52:40.836Z,8.18
2023-04-03T01:55:13.558Z,8.17
2023-04-03T01:57:47.126Z,8.19
2023-04-03T02:00:20.258Z,8.19
2023-04-03T02:02:53.304Z,8.12
2023-04-03T02:05:26.240Z,8.11
2023-04-03T02:07:59.271Z,8.11
2023-04-03T02:10:32.880Z,8.09
2023-04-03T02:13:06.156Z,8.13
2023-04-03T02:15:41.332Z,8.12
2023-04-03T02:18:13.361Z,8.10
2023-04-03T02:20:46.449Z,8.08
2023-04-03T02:23:19.285Z,8.05
2023-04-03T02:25:51.983Z,8.06
2023-04-03T02:28:25.102Z,8.11
2023-04-03T02:30:57.694Z,8.12
2023-04-03T02:33:31.050Z,8.16
2023-04-03T02:36:03.720Z,8.15
2023-04-03T02:38:36.771Z,8.14
2023-04-03T02:41:11.576Z,8.14
2023-04-03T02:43:44.288Z,8.14
2023-04-03T02:46:17.116Z,8.12
2023-04-03T02:48:49.854Z,8.12
2023-04-03T02:51:22.454Z,8.11
2023-04-03T02:53:54.941Z,8.17
2023-04-03T02:56:28.990Z,8.22
2023-04-03T02:59:01.470Z,8.21
2023-04-03T03:01:36.939Z,8.20
2023-04-03T03:04:09.541Z,8.19
2023-04-03T03:06:43.682Z,8.20
2023-04-03T03:09:17.921Z,8.20
2023-04-03T03:11:50.664Z,8.20
2023-04-03T03:14:24.464Z,8.20
2023-04-03T03:16:57.044Z,8.19
2023-04-03T03:19:29.755Z,8.21
2023-04-03T03:22:02.760Z,8.21
2023-04-03T03:24:35.537Z,8.22
2023-04-03T03:27:09.483Z,8.23
2023-04-03T03:29:42.946Z,8.28
2023-04-03T03:32:15.737Z,8.26
2023-04-03T03:34:49.224Z,8.30
2023-04-03T03:37:21.639Z,8.30
2023-04-03T03:39:54.210Z,8.27
2023-04-03T03:42:27.104Z,8.24
2023-04-03T03:44:59.594Z,8.24
2023-04-03T03:47:32.294Z,8.24
2023-04-03T03:50:06.167Z,8.23
2023-04-03T03:52:40.013Z,8.21
2023-04-03T03:55:12.566Z,8.20
2023-04-03T03:57:46.744Z,8.23
2023-04-03T04:00:19.922Z,8.25
2023-04-03T04:02:57.719Z,8.21
2023-04-03T04:05:30.130Z,8.19
2023-04-03T04:08:04.145Z,8.19
2023-04-03T04:10:37.637Z,8.21
2023-04-03T04:13:10.933Z,8.20
2023-04-03T04:15:44.734Z,8.22
2023-04-03T04:18:19.015Z,8.24
2023-04-03T04:20:51.779Z,8.24
2023-04-03T04:23:25.057Z,8.27
2023-04-03T04:25:58.248Z,8.24
2023-04-03T04:28:32.114Z,8.23
2023-04-03T04:31:05.238Z,8.23
2023-04-03T04:33:38.952Z,8.18
2023-04-03T04:36:12.402Z,8.20
2023-04-03T04:38:46.920Z,8.18
2023-04-03T04:41:21.656Z,8.20
2023-04-03T04:43:54.604Z,8.24
2023-04-03T04:46:28.268Z,8.27
2023-04-03T04:49:02.281Z,8.29
2023-04-03T04:51:48.350Z,8.31
2023-04-03T04:54:10.451Z,8.38
2023-04-03T04:56:44.296Z,8.42
2023-04-03T04:59:18.796Z,8.41
2023-04-03T05:01:52.454Z,8.41
2023-04-03T05:04:25.825Z,8.43
2023-04-03T05:07:00.895Z,8.47
2023-04-03T05:09:35.479Z,8.48
2023-04-03T05:12:08.551Z,8.51
2023-04-03T05:14:42.880Z,8.56
2023-04-03T05:17:16.268Z,8.58
2023-04-03T05:19:50.722Z,8.64
2023-04-03T05:22:23.531Z,8.66
2023-04-03T05:24:58.377Z,8.66
2023-04-03T05:27:31.129Z,8.65
2023-04-03T05:30:05.529Z,8.63
2023-04-03T05:32:39.206Z,8.63
2023-04-03T05:35:13.502Z,8.70
2023-04-03T05:37:47.561Z,8.74
2023-04-03T05:40:20.752Z,8.75
2023-04-03T05:42:55.775Z,8.80
2023-04-03T05:45:28.898Z,8.83
2023-04-03T05:48:02.429Z,8.85
2023-04-03T05:50:35.560Z,8.88
2023-04-03T05:53:09.611Z,8.89
2023-04-03T05:55:42.329Z,8.89
2023-04-03T05:58:14.895Z,8.92
2023-04-03T06:00:48.142Z,8.93
2023-04-03T06:03:21.976Z,8.93
2023-04-03T06:05:54.908Z,9.02
2023-04-03T06:08:28.544Z,9.10
2023-04-03T06:11:04.198Z,9.12
2023-04-03T06:13:36.744Z,9.11
2023-04-03T06:16:15.988Z,9.11
2023-04-03T06:18:49.434Z,9.13
2023-04-03T06:21:22.365Z,9.13
2023-04-03T06:23:54.968Z,9.14
2023-04-03T06:26:28.482Z,9.18
2023-04-03T06:29:01.587Z,9.23
2023-04-03T06:31:34.777Z,9.26
2023-04-03T06:34:09.639Z,9.30
2023-04-03T06:36:43.439Z,9.30
2023-04-03T06:39:24.745Z,9.33
2023-04-03T06:41:57.921Z,9.35
2023-04-03T06:44:35.717Z,9.35
2023-04-03T06:47:09.748Z,9.39
2023-04-03T06:49:44.340Z,9.41
2023-04-03T06:52:16.851Z,9.42
2023-04-03T06:54:49.740Z,9.44
2023-04-03T06:57:23.582Z,9.42
2023-04-03T06:59:57.059Z,9.44
2023-04-03T07:02:29.807Z,9.49
2023-04-03T07:05:02.907Z,9.54
2023-04-03T07:07:35.556Z,9.58
2023-04-03T07:10:09.767Z,9.58
2023-04-03T07:12:42.843Z,9.56
2023-04-03T07:15:16.966Z,9.55
2023-04-03T07:17:49.731Z,9.55
2023-04-03T07:20:22.810Z,9.57
2023-04-03T07:22:55.528Z,9.53
2023-04-03T07:25:28.000Z,9.53
2023-04-03T07:28:00.531Z,9.57
2023-04-03T07:30:33.092Z,9.61
2023-04-03T07:33:06.334Z,9.64
2023-04-03T07:35:39.501Z,9.67
2023-04-03T07:38:13.044Z,9.64
2023-04-03T07:40:50.876Z,9.67
2023-04-03T07:43:25.854Z,9.69
2023-04-03T07:45:58.277Z,9.72
2023-04-03T07:48:31.177Z,9.79
2023-04-03T07:51:05.309Z,9.85
2023-04-03T07:53:37.875Z,9.90
2023-04-03T07:56:10.999Z,9.91
2023-04-03T07:58:44.196Z,9.93
2023-04-03T08:01:17.510Z,9.98
2023-04-03T08:03:51.934Z,10.10
2023-04-03T08:06:37.474Z,10.10
2023-04-03T08:09:00.173Z,10.09
2023-04-03T08:11:33.200Z,10.10
2023-04-03T08:14:06.654Z,10.11
2023-04-03T08:16:39.362Z,10.16
2023-04-03T08:19:22.292Z,10.16
2023-04-03T08:21:48.471Z,10.21
2023-04-03T08:24:21.025Z,10.23
2023-04-03T08:26:54.733Z,10.21
2023-04-03T08:29:27.719Z,10.24
2023-04-03T08:32:00.393Z,10.27
2023-04-03T08:34:35.403Z,10.31
2023-04-03T08:37:08.807Z,10.35
2023-04-03T08:39:42.305Z,10.43
2023-04-03T08:42:32.324Z,10.48
2023-04-03T08:45:29.372Z,10.47
2023-04-03T08:48:12.584Z,10.53
2023-04-03T08:50:50.038Z,10.66
2023-04-03T08:53:25.639Z,10.76
2023-04-03T08:55:59.142Z,10.83
2023-04-03T08:58:34.101Z,10.93
2023-04-03T09:01:10.727Z,10.99
2023-04-03T09:03:43.585Z,11.01
2023-04-03T09:06:26.081Z,11.02
2023-04-03T09:09:17.640Z,11.04
2023-04-03T09:12:29.332Z,11.12
2023-04-03T09:15:35.442Z,11.14
2023-04-03T09:18:23.934Z,11.14
2023-04-03T09:21:01.945Z,11.20
2023-04-03T09:23:50.471Z,11.24
2023-04-03T09:26:40.584Z,11.29
2023-04-03T09:29:18.265Z,11.27
2023-04-03T09:31:54.436Z,11.31
2023-04-03T09:34:34.803Z,11.40
2023-04-03T09:37:08.382Z,11.56
2023-04-03T09:39:57.333Z,11.62
2023-04-03T09:42:29.945Z,11.59
2023-04-03T09:45:07.849Z,11.55
2023-04-03T09:47:43.018Z,11.53
2023-04-03T09:50:20.793Z,11.55
2023-04-03T09:52:53.991Z,11.64
2023-04-03T09:55:30.270Z,11.74
2023-04-03T09:58:05.568Z,11.81
2023-04-03T10:00:40.817Z,11.86
2023-04-03T10:03:40.437Z,11.87
2023-04-03T10:06:26.449Z,11.89
2023-04-03T10:09:06.403Z,11.81
2023-04-03T10:11:38.914Z,11.72
2023-04-03T10:14:16.930Z,11.58
2023-04-03T10:17:04.897Z,11.46
2023-04-03T10:19:49.980Z,11.30
2023-04-03T10:22:39.492Z,11.11
2023-04-03T10:25:25.382Z,10.92
2023-04-03T10:28:35.078Z,10.72
2023-04-03T10:31:13.007Z,10.63
2023-04-03T10:34:13.166Z,10.54
2023-04-03T10:36:57.270Z,10.53
2023-04-03T10:39:52.972Z,10.51
2023-04-03T10:42:48.626Z,10.50
2023-04-03T10:45:34.955Z,10.44
2023-04-03T10:48:15.085Z,10.42
2023-04-03T10:50:55.521Z,10.43
2023-04-03T10:53:41.422Z,10.54
2023-04-03T10:56:35.759Z,10.62
2023-04-03T10:59:19.151Z,10.62
2023-04-03T11:01:59.028Z,10.62
2023-04-03T11:04:35.457Z,10.61
2023-04-03T11:07:24.434Z,10.57
2023-04-03T11:10:01.187Z,10.54
2023-04-03T11:12:45.990Z,10.44
2023-04-03T11:15:20.865Z,10.36
2023-04-03T11:18:04.092Z,10.34
2023-04-03T11:20:38.594Z,10.29
2023-04-03T11:23:42.298Z,10.24
2023-04-03T11:26:16.908Z,10.23
2023-04-03T11:32:30.872Z,10.09
2023-04-03T11:35:04.456Z,10.00
2023-04-03T11:37:45.054Z,9.93
2023-04-03T11:40:22.647Z,9.86
2023-04-03T11:43:08.894Z,9.84
2023-04-03T11:46:00.585Z,9.82
2023-04-03T11:48:41.077Z,9.71
2023-04-03T11:51:34.498Z,9.62
2023-04-03T11:54:48.546Z,9.55
2023-04-03T11:57:57.798Z,9.48
2023-04-03T12:00:55.555Z,9.42
2023-04-03T12:03:34.778Z,9.37
2023-04-03T12:06:16.660Z,9.36
2023-04-03T12:08:53.357Z,9.37
2023-04-03T12:11:34.261Z,9.37
2023-04-03T12:14:09.929Z,9.33
2023-04-03T12:16:48.695Z,9.26
2023-04-03T12:19:42.000Z,9.17
2023-04-03T12:22:11.020Z,9.14
2023-04-03T12:24:49.682Z,9.09
2023-04-03T12:27:33.274Z,8.98
2023-04-03T12:30:17.860Z,8.93
2023-04-03T12:33:14.293Z,8.91
2023-04-03T12:36:14.365Z,8.96
2023-04-03T12:39:04.652Z,8.92
2023-04-03T12:42:01.119Z,8.86
2023-04-03T12:45:15.326Z,8.83
2023-04-03T12:47:50.595Z,8.75
2023-04-03T12:50:27.036Z,8.73
2023-04-03T12:53:21.775Z,8.73
2023-04-03T12:56:22.536Z,8.71
2023-04-03T12:58:59.540Z,8.69
2023-04-03T13:01:32.769Z,8.63
2023-04-03T13:04:06.329Z,8.51
2023-04-03T13:06:43.422Z,8.42
2023-04-03T13:09:33.750Z,8.38
2023-04-03T13:12:37.434Z,8.33
2023-04-03T13:15:24.390Z,8.29
2023-04-03T13:17:57.815Z,8.28
2023-04-03T13:20:35.201Z,8.24
2023-04-03T13:23:12.974Z,8.17
2023-04-03T13:25:46.997Z,8.12
2023-04-03T13:28:25.076Z,8.07
2023-04-03T13:31:19.122Z,8.04
2023-04-03T13:34:05.555Z,8.03
2023-04-03T13:36:45.285Z,8.00
2023-04-03T13:39:28.135Z,8.01
2023-04-03T13:42:03.770Z,8.04
2023-04-03T13:44:39.853Z,8.04
2023-04-03T13:47:24.373Z,8.00
2023-04-03T13:50:16.778Z,7.97
2023-04-03T13:52:54.229Z,7.97
2023-04-03T13:55:34.255Z,7.88
2023-04-03T13:58:15.396Z,7.80
2023-04-03T14:00:58.387Z,7.78
2023-04-03T14:03:45.217Z,7.75
2023-04-03T14:06:18.715Z,7.74
2023-04-03T14:08:51.327Z,7.81
2023-04-03T14:11:28.395Z,7.87
2023-04-03T14:14:05.473Z,7.91
2023-04-03T14:16:42.635Z,7.88
2023-04-03T14:19:25.154Z,7.82
2023-04-03T14:21:58.612Z,7.79
2023-04-03T14:24:31.749Z,7.73
2023-04-03T14:27:04.541Z,7.64
2023-04-03T14:29:38.519Z,7.62
2023-04-03T14:32:16.759Z,7.60
2023-04-03T14:34:49.853Z,7.59
2023-04-03T14:37:28.953Z,7.62
2023-04-03T14:40:04.846Z,7.57
2023-04-03T14:42:39.382Z,7.50
2023-04-03T14:45:13.702Z,7.52
2023-04-03T14:47:53.449Z,7.56
2023-04-03T14:50:28.320Z,7.58
2023-04-03T14:53:01.703Z,7.58
2023-04-03T14:55:36.375Z,7.58
2023-04-03T14:58:12.158Z,7.59
2023-04-03T15:00:46.287Z,7.56
2023-04-03T15:03:22.632Z,7.53
2023-04-03T15:05:55.556Z,7.49
2023-04-03T15:08:31.109Z,7.41
2023-04-03T15:11:04.747Z,7.32
2023-04-03T15:13:37.735Z,7.29
2023-04-03T15:16:21.356Z,7.26
2023-04-03T15:18:53.915Z,7.21
2023-04-03T15:21:28.837Z,7.13
2023-04-03T15:24:02.251Z,7.09
2023-04-03T15:26:35.808Z,7.07
2023-04-03T15:29:10.085Z,7.04
2023-04-03T15:31:43.563Z,7.01
2023-04-03T15:34:17.638Z,6.96
2023-04-03T15:36:52.952Z,6.93
2023-04-03T15:39:26.642Z,6.91
2023-04-03T15:42:01.678Z,6.90
2023-04-03T15:44:37.738Z,6.86
2023-04-03T15:47:09.778Z,6.80
2023-04-03T15:49:42.870Z,6.75
2023-04-03T15:52:15.948Z,6.70
2023-04-03T15:54:48.857Z,6.68
2023-04-03T15:57:21.565Z,6.62
2023-04-03T15:59:54.715Z,6.56
2023-04-03T16:02:28.615Z,6.50
2023-04-03T16:05:02.884Z,6.46
2023-04-03T16:07:36.364Z,6.41
2023-04-03T16:10:11.288Z,6.37
2023-04-03T16:12:44.546Z,6.39
2023-04-03T16:15:18.672Z,6.38
2023-04-03T16:17:51.749Z,6.37
2023-04-03T16:20:24.887Z,6.35
2023-04-03T16:22:58.661Z,6.33
2023-04-03T16:25:32.247Z,6.27
2023-04-03T16:28:05.210Z,6.27
2023-04-03T16:30:38.228Z,6.24
2023-04-03T16:33:12.995Z,6.23
2023-04-03T16:35:46.013Z,6.23
2023-04-03T16:38:20.627Z,6.18
2023-04-03T16:40:54.871Z,6.14
2023-04-03T16:43:28.457Z,6.11
2023-04-03T16:46:03.575Z,6.08
2023-04-03T16:48:36.943Z,6.05
2023-04-03T16:51:09.864Z,6.06
2023-04-03T16:53:43.499Z,6.08
2023-04-03T16:56:17.006Z,6.05
2023-04-03T16:58:50.339Z,6.04
2023-04-03T17:01:24.677Z,6.02
2023-04-03T17:03:58.583Z,5.95
2023-04-03T17:06:31.766Z,5.92
2023-04-03T17:09:04.484Z,5.90
2023-04-03T17:11:37.815Z,5.85
2023-04-03T17:14:11.223Z,5.84
2023-04-03T17:16:44.487Z,5.84
2023-04-03T17:19:18.181Z,5.83
2023-04-03T17:21:51.125Z,5.83
2023-04-03T17:24:23.646Z,5.83
2023-04-03T17:26:56.870Z,5.83
2023-04-03T17:29:29.496Z,5.86
2023-04-03T17:32:02.294Z,5.86
2023-04-03T17:34:37.126Z,5.84
2023-04-03T17:37:11.211Z,5.82
2023-04-03T17:39:43.509Z,5.82
2023-04-03T17:42:16.774Z,5.79
2023-04-03T17:44:49.650Z,5.81
2023-04-03T17:47:23.180Z,5.79
2023-04-03T17:49:56.146Z,5.81
2023-04-03T17:52:28.845Z,5.81
2023-04-03T17:55:02.126Z,5.81
2023-04-03T17:57:35.059Z,5.76
2023-04-03T18:00:11.810Z,5.70
2023-04-03T18:02:46.191Z,5.65
2023-04-03T18:05:18.748Z,5.66
2023-04-03T18:07:52.791Z,5.66
2023-04-03T18:10:25.722Z,5.66
2023-04-03T18:12:58.483Z,5.70
2023-04-03T18:15:33.194Z,5.69
2023-04-03T18:18:05.938Z,5.69
2023-04-03T18:20:39.680Z,5.70
2023-04-03T18:23:13.376Z,5.71
2023-04-03T18:25:46.360Z,5.74
2023-04-03T18:28:19.101Z,5.75
2023-04-03T18:30:51.926Z,5.76
2023-04-03T18:33:25.157Z,5.75
2023-04-03T18:35:58.444Z,5.72
2023-04-03T18:38:31.336Z,5.73
2023-04-03T18:41:05.144Z,5.77
2023-04-03T18:43:38.143Z,5.75
2023-04-03T18:46:10.833Z,5.72
2023-04-03T18:48:45.945Z,5.70
2023-04-03T18:51:19.025Z,5.67
2023-04-03T18:53:51.695Z,5.64
2023-04-03T18:56:25.669Z,5.62
2023-04-03T18:58:59.162Z,5.57
2023-04-03T19:01:32.014Z,5.54
2023-04-03T19:04:05.517Z,5.59
2023-04-03T19:06:38.254Z,5.88
2023-04-03T19:09:11.527Z,6.30
2023-04-03T19:11:44.409Z,6.20
2023-04-03T19:14:18.057Z,6.10
2023-04-03T19:16:51.083Z,6.02
2023-04-03T19:19:23.774Z,5.92
2023-04-03T19:21:57.562Z,5.84
2023-04-03T19:24:30.944Z,5.75
2023-04-03T19:27:05.352Z,5.69
2023-04-03T19:29:37.990Z,5.67
2023-04-03T19:32:12.149Z,5.61
2023-04-03T19:34:44.763Z,5.58
2023-04-03T19:37:18.769Z,5.52
2023-04-03T19:39:51.431Z,5.51
2023-04-03T19:42:24.528Z,5.48
2023-04-03T19:44:57.593Z,5.45
2023-04-03T19:47:30.491Z,5.46
2023-04-03T19:50:03.652Z,5.43
2023-04-03T19:52:37.361Z,5.43
2023-04-03T19:55:11.140Z,5.39
2023-04-03T19:57:43.636Z,5.40
2023-04-03T20:00:17.902Z,5.39
2023-04-03T20:02:51.282Z,5.35
2023-04-03T20:05:24.380Z,5.31
2023-04-03T20:07:56.849Z,5.29
2023-04-03T20:10:29.388Z,5.25
2023-04-03T20:13:03.945Z,5.24
2023-04-03T20:15:38.703Z,5.27
2023-04-03T20:18:18.806Z,5.33
2023-04-03T20:21:02.334Z,5.34
2023-04-03T20:23:35.645Z,5.35
2023-04-03T20:26:13.839Z,5.45
2023-04-03T20:28:42.271Z,5.41
2023-04-03T20:31:16.082Z,5.36
2023-04-03T20:33:49.623Z,5.58
2023-04-03T20:36:23.830Z,6.09
2023-04-03T20:38:56.257Z,6.02
2023-04-03T20:41:28.861Z,5.86
2023-04-03T20:44:03.094Z,5.72
2023-04-03T20:46:51.460Z,5.63
2023-04-03T20:49:11.142Z,5.52
2023-04-03T20:51:44.248Z,5.40
2023-04-03T20:54:17.768Z,5.32
2023-04-03T20:56:50.679Z,5.28
2023-04-03T20:59:24.455Z,5.23
2023-04-03T21:01:58.377Z,5.23
2023-04-03T21:04:42.375Z,5.28
2023-04-03T21:08:11.072Z,5.27
2023-04-03T21:11:38.547Z,5.28
2023-04-03T21:15:06.358Z,5.26
2023-04-03T21:17:37.830Z,5.24
2023-04-03T21:20:10.342Z,5.19
2023-04-03T21:22:44.536Z,5.22
2023-04-03T21:25:17.044Z,5.20
2023-04-03T21:27:50.000Z,5.16
2023-04-03T21:30:22.909Z,5.09
2023-04-03T21:32:56.637Z,5.08
2023-04-03T21:35:29.838Z,5.07
2023-04-03T21:38:02.363Z,5.05
2023-04-03T21:40:35.018Z,4.99
2023-04-03T21:43:07.563Z,4.99
2023-04-03T21:45:41.005Z,5.00
2023-04-03T21:48:15.462Z,4.98
2023-04-03T21:50:49.417Z,4.93
2023-04-03T21:53:23.249Z,4.93
2023-04-03T21:55:58.314Z,5.05
2023-04-03T21:58:33.872Z,5.02
2023-04-03T22:01:16.499Z,4.98
2023-04-03T22:03:50.178Z,4.96
2023-04-03T22:06:23.325Z,4.88
2023-04-03T22:08:59.308Z,4.84
2023-04-03T22:11:31.834Z,4.83
2023-04-03T22:14:04.544Z,4.86
2023-04-03T22:16:39.359Z,4.82
2023-04-03T22:19:12.372Z,4.78
2023-04-03T22:21:45.781Z,4.77
2023-04-03T22:24:19.782Z,4.77
2023-04-03T22:26:52.221Z,4.77
2023-04-03T22:29:25.001Z,4.79
2023-04-03T22:31:57.541Z,4.82
2023-04-03T22:34:30.419Z,4.79
2023-04-03T22:37:03.239Z,4.72
2023-04-03T22:39:36.151Z,4.67
2023-04-03T22:42:09.354Z,4.62
2023-04-03T22:44:42.126Z,4.62
2023-04-03T22:47:14.488Z,4.57
2023-04-03T22:49:48.046Z,4.53
2023-04-03T22:52:21.066Z,4.52
2023-04-03T22:54:53.602Z,4.53
2023-04-03T22:57:26.647Z,4.55
2023-04-03T23:00:00.105Z,4.53
2023-04-03T23:02:34.400Z,4.53
2023-04-03T23:05:08.549Z,4.55
2023-04-03T23:07:41.047Z,4.58
2023-04-03T23:10:13.835Z,4.61
2023-04-03T23:12:46.623Z,4.63
2023-04-03T23:15:19.725Z,4.64
2023-04-03T23:17:53.155Z,4.62
2023-04-03T23:20:26.689Z,4.61
2023-04-03T23:22:59.445Z,4.60
2023-04-03T23:25:32.436Z,4.55
2023-04-03T23:28:06.089Z,4.54
2023-04-03T23:30:38.890Z,4.54
2023-04-03T23:33:12.634Z,4.50
2023-04-03T23:35:48.659Z,4.44
2023-04-03T23:38:21.736Z,4.41
2023-04-03T23:40:54.189Z,4.47
2023-04-03T23:43:27.847Z,4.48
2023-04-03T23:46:00.651Z,4.48
2023-04-03T23:48:33.256Z,4.51
2023-04-03T23:51:07.362Z,4.56
2023-04-03T23:53:41.151Z,4.56
2023-04-03T23:56:14.531Z,4.54
2023-04-03T23:58:47.733Z,4.50
